HTMT

Details ICAO HTMT (MYW)
Name MTWARA
Region Tanzania
Timezone Africa/Dar_es_Salaam (UTC+3.0)
Plans Departing 1
Arriving 2
Stats Elevation 371 ft / 113 m (AMSL)
Location -10.337537° 40.182162°
Runways 2
Magnetic Variation 4.515° W
Sunrise 2017-12-15 02:54:04 UTC / 2017-12-15 05:54:04 Local
Sunset 2017-12-15 15:37:28 UTC / 2017-12-15 18:37:28 Local
Advertisement - Login to hide

Runways

ID Width Length Bearing (true) Bearing (mag) Surface Threshold Offset Overrun Length
01 98 ft / 30 m 7,451 ft / 2,271 m 3.85° 8.36° Asphalt 0 ft / 0 m 0 ft / 0 m
08 98 ft / 30 m 3,812 ft / 1,162 m 80.02° 84.53° Dirt 0 ft / 0 m 0 ft / 0 m
19 98 ft / 30 m 7,451 ft / 2,271 m 183.85° 188.36° Asphalt 0 ft / 0 m 0 ft / 0 m
26 98 ft / 30 m 3,812 ft / 1,162 m 260.02° 264.53° Dirt 0 ft / 0 m 0 ft / 0 m

Map

Weather


0- 5 10 15 20 25 30 35+ Temperature / ° C

Clouds and Precipitation
Forecast for 2017-12-15 12:00 UTC. Updated an hour ago

Ground ~20,000 ft ~40,000 ft Winds

METAR

HTMT 151200Z 36014KT 9999 FEW025 FEW026CB BKN090 32/23 Q1009

TAF

Not found

Frequencies

Tower 118.10 MHz TWR
Warning: Do not use this data for real-world aviation or navigation. No guarantee of current accuracy is given.